KDLH/DLH METAR and TAF weather

Enter ICAO airport designator
Station Type Date Time Source
KDLH METAR 2018/12/10 16:55 UTC NOAA

KDLH 101655Z 26011KT 10SM FEW120 M03/M07 A2997 RMK AO2 SLP174 T10331072


Station Type Date Time Source
KDLH Decoded METAR 2018/12/10 16:55 UTC NOAA

Duluth, Duluth International Airport, MN, United States (KDLH) 46-50-34N 092-13-34W 435M
Dec 10, 2018 - 11:55 AM EST / 2018.12.10 1655 UTC
Wind: from the W (260 degrees) at 13 MPH (11 KT):0
Visibility: 10 mile(s):0
Sky conditions: mostly clear
Temperature: 26.1 F (-3.3 C)
Windchill: 14 F (-10 C):1
Dew Point: 19.0 F (-7.2 C)
Relative Humidity: 74%
Pressure (altimeter): 29.97 in. Hg (1014 hPa)
ob: KDLH 101655Z 26011KT 10SM FEW120 M03/M07 A2997 RMK AO2 SLP174 T10331072
cycle: 17

Station Type Date Time Source
KDLH TAF 2018/12/10 18:22 UTC NOAA

TAF KDLH 101720Z 1018/1118 25009KT P6SM SCT200
FM110200 29005KT P6SM SKC
FM111400 VRB03KT 6SM BR FEW250
FM111600 VRB03KT P6SM FEW200


Example: see airport list